sensor_id;sensor_type;location;lat;lon;timestamp;pressure;altitude;pressure_sealevel;temperature;humidity
77469;BME280;68840;50.272;12.818;2023-04-01T00:00:07;94390;;;7.7;78.1
77469;BME280;68840;50.272;12.818;2023-04-01T00:02:05;94391;;;7.7;78.1
77469;BME280;68840;50.272;12.818;2023-04-01T00:04:05;94394;;;7.7;78.1
77469;BME280;68840;50.272;12.818;2023-04-01T00:06:05;94392;;;7.7;78.2
77469;BME280;68840;50.272;12.818;2023-04-01T00:08:05;94389;;;7.7;78.2
77469;BME280;68840;50.272;12.818;2023-04-01T00:10:07;94387;;;7.7;78.1
77469;BME280;68840;50.272;12.818;2023-04-01T00:12:05;94386;;;7.7;78.2
77469;BME280;68840;50.272;12.818;2023-04-01T00:14:06;94385;;;7.7;78.2
77469;BME280;68840;50.272;12.818;2023-04-01T00:16:06;94388;;;7.7;78.2
77469;BME280;68840;50.272;12.818;2023-04-01T00:18:06;94388;;;7.7;78.2
77469;BME280;68840;50.272;12.818;2023-04-01T00:20:07;94388;;;7.7;78.3
77469;BME280;68840;50.272;12.818;2023-04-01T00:22:06;94388;;;7.7;78.4
77469;BME280;68840;50.272;12.818;2023-04-01T00:24:05;94390;;;7.7;78.6
77469;BME280;68840;50.272;12.818;2023-04-01T00:26:06;94391;;;7.7;78.6
77469;BME280;68840;50.272;12.818;2023-04-01T00:28:05;94392;;;7.7;78.6
77469;BME280;68840;50.272;12.818;2023-04-01T00:30:06;94391;;;7.7;78.6
77469;BME280;68840;50.272;12.818;2023-04-01T00:32:05;94390;;;7.7;78.6
77469;BME280;68840;50.272;12.818;2023-04-01T00:34:05;94393;;;7.7;78.6
77469;BME280;68840;50.272;12.818;2023-04-01T00:36:06;94392;;;7.6;78.8
77469;BME280;68840;50.272;12.818;2023-04-01T00:38:06;94390;;;7.6;78.8
77469;BME280;68840;50.272;12.818;2023-04-01T00:40:07;94389;;;7.6;78.7
77469;BME280;68840;50.272;12.818;2023-04-01T00:42:05;94389;;;7.6;78.8
77469;BME280;68840;50.272;12.818;2023-04-01T00:44:16;94388;;;7.6;78.9
77469;BME280;68840;50.272;12.818;2023-04-01T00:46:05;94388;;;7.6;78.8
77469;BME280;68840;50.272;12.818;2023-04-01T00:48:08;94389;;;7.6;78.9
77469;BME280;68840;50.272;12.818;2023-04-01T00:50:06;94388;;;7.6;79.0
77469;BME280;68840;50.272;12.818;2023-04-01T00:52:07;94389;;;7.6;78.9
77469;BME280;68840;50.272;12.818;2023-04-01T00:54:07;94389;;;7.6;79.0
77469;BME280;68840;50.272;12.818;2023-04-01T00:56:09;94386;;;7.6;79.0
77469;BME280;68840;50.272;12.818;2023-04-01T00:58:08;94386;;;7.6;79.0
77469;BME280;68840;50.272;12.818;2023-04-01T01:00:10;94387;;;7.6;79.0
77469;BME280;68840;50.272;12.818;2023-04-01T01:02:08;94388;;;7.6;79.0
77469;BME280;68840;50.272;12.818;2023-04-01T01:04:06;94386;;;7.6;79.1
77469;BME280;68840;50.272;12.818;2023-04-01T01:06:11;94386;;;7.6;79.0
77469;BME280;68840;50.272;12.818;2023-04-01T01:08:12;94382;;;7.6;79.0
77469;BME280;68840;50.272;12.818;2023-04-01T01:10:11;94381;;;7.6;79.0
77469;BME280;68840;50.272;12.818;2023-04-01T01:12:11;94380;;;7.6;79.0
77469;BME280;68840;50.272;12.818;2023-04-01T01:14:18;94378;;;7.6;78.9
77469;BME280;68840;50.272;12.818;2023-04-01T01:16:12;94378;;;7.6;78.8
77469;BME280;68840;50.272;12.818;2023-04-01T01:18:11;94376;;;7.6;78.7
77469;BME280;68840;50.272;12.818;2023-04-01T01:20:27;94376;;;7.6;78.5
77469;BME280;68840;50.272;12.818;2023-04-01T01:22:28;94376;;;7.6;78.5
77469;BME280;68840;50.272;12.818;2023-04-01T01:24:15;94375;;;7.6;78.4
77469;BME280;68840;50.272;12.818;2023-04-01T01:26:21;94375;;;7.6;78.4
77469;BME280;68840;50.272;12.818;2023-04-01T01:28:20;94372;;;7.6;78.3
77469;BME280;68840;50.272;12.818;2023-04-01T01:30:17;94370;;;7.7;78.2
77469;BME280;68840;50.272;12.818;2023-04-01T01:32:13;94368;;;7.7;78.1
77469;BME280;68840;50.272;12.818;2023-04-01T01:34:16;94366;;;7.7;78.0
77469;BME280;68840;50.272;12.818;2023-04-01T01:36:09;94365;;;7.7;77.9
77469;BME280;68840;50.272;12.818;2023-04-01T01:38:09;94364;;;7.7;77.8
77469;BME280;68840;50.272;12.818;2023-04-01T01:40:08;94367;;;7.7;77.8
77469;BME280;68840;50.272;12.818;2023-04-01T01:42:08;94364;;;7.7;77.7
77469;BME280;68840;50.272;12.818;2023-04-01T01:44:09;94363;;;7.7;77.6
77469;BME280;68840;50.272;12.818;2023-04-01T01:46:11;94362;;;7.7;77.4
77469;BME280;68840;50.272;12.818;2023-04-01T01:48:08;94363;;;7.7;77.3
77469;BME280;68840;50.272;12.818;2023-04-01T01:50:07;94363;;;7.7;77.3
77469;BME280;68840;50.272;12.818;2023-04-01T01:52:05;94363;;;7.7;77.3
77469;BME280;68840;50.272;12.818;2023-04-01T01:54:05;94365;;;7.7;77.3
77469;BME280;68840;50.272;12.818;2023-04-01T01:56:06;94363;;;7.7;77.0
77469;BME280;68840;50.272;12.818;2023-04-01T01:58:11;94360;;;7.7;76.9
77469;BME280;68840;50.272;12.818;2023-04-01T02:00:13;94360;;;7.7;76.8
77469;BME280;68840;50.272;12.818;2023-04-01T02:02:07;94362;;;7.7;76.7
77469;BME280;68840;50.272;12.818;2023-04-01T02:04:06;94359;;;7.7;76.7
77469;BME280;68840;50.272;12.818;2023-04-01T02:06:08;94363;;;7.7;76.7
77469;BME280;68840;50.272;12.818;2023-04-01T02:08:09;94362;;;7.7;76.5
77469;BME280;68840;50.272;12.818;2023-04-01T02:10:06;94361;;;7.7;76.3
77469;BME280;68840;50.272;12.818;2023-04-01T02:12:07;94361;;;7.7;76.3
77469;BME280;68840;50.272;12.818;2023-04-01T02:14:07;94361;;;7.7;76.2
77469;BME280;68840;50.272;12.818;2023-04-01T02:16:11;94362;;;7.8;76.1
77469;BME280;68840;50.272;12.818;2023-04-01T02:18:06;94363;;;7.8;76.0
77469;BME280;68840;50.272;12.818;2023-04-01T02:20:10;94361;;;7.8;76.0
77469;BME280;68840;50.272;12.818;2023-04-01T02:22:09;94362;;;7.8;76.0
77469;BME280;68840;50.272;12.818;2023-04-01T02:24:09;94364;;;7.8;75.9
77469;BME280;68840;50.272;12.818;2023-04-01T02:26:07;94365;;;7.8;75.7
77469;BME280;68840;50.272;12.818;2023-04-01T02:28:07;94366;;;7.8;75.6
77469;BME280;68840;50.272;12.818;2023-04-01T02:30:07;94368;;;7.8;75.7
77469;BME280;68840;50.272;12.818;2023-04-01T02:32:06;94369;;;7.8;75.5
77469;BME280;68840;50.272;12.818;2023-04-01T02:34:05;94365;;;7.8;75.5
77469;BME280;68840;50.272;12.818;2023-04-01T02:36:06;94367;;;7.8;75.4
77469;BME280;68840;50.272;12.818;2023-04-01T02:38:06;94369;;;7.8;75.4
77469;BME280;68840;50.272;12.818;2023-04-01T02:40:08;94370;;;7.8;75.2
77469;BME280;68840;50.272;12.818;2023-04-01T02:42:06;94371;;;7.8;75.2
77469;BME280;68840;50.272;12.818;2023-04-01T02:44:07;94372;;;7.8;75.3
77469;BME280;68840;50.272;12.818;2023-04-01T02:46:05;94371;;;7.8;75.2
77469;BME280;68840;50.272;12.818;2023-04-01T02:48:05;94373;;;7.8;75.2
77469;BME280;68840;50.272;12.818;2023-04-01T02:50:06;94374;;;7.8;75.0
77469;BME280;68840;50.272;12.818;2023-04-01T02:52:05;94375;;;7.8;75.1
77469;BME280;68840;50.272;12.818;2023-04-01T02:54:05;94377;;;7.8;75.0
77469;BME280;68840;50.272;12.818;2023-04-01T02:56:05;94378;;;7.8;74.9
77469;BME280;68840;50.272;12.818;2023-04-01T02:58:05;94379;;;7.8;74.9
77469;BME280;68840;50.272;12.818;2023-04-01T03:00:11;94378;;;7.8;74.8
77469;BME280;68840;50.272;12.818;2023-04-01T03:02:06;94377;;;7.8;74.7
77469;BME280;68840;50.272;12.818;2023-04-01T03:04:05;94376;;;7.8;74.5
77469;BME280;68840;50.272;12.818;2023-04-01T03:06:06;94375;;;7.8;74.6
77469;BME280;68840;50.272;12.818;2023-04-01T03:08:06;94371;;;7.8;74.5
77469;BME280;68840;50.272;12.818;2023-04-01T03:10:07;94372;;;7.8;74.3
77469;BME280;68840;50.272;12.818;2023-04-01T03:12:06;94371;;;7.8;74.1
77469;BME280;68840;50.272;12.818;2023-04-01T03:14:06;94371;;;7.8;74.2
77469;BME280;68840;50.272;12.818;2023-04-01T03:16:06;94370;;;7.8;74.0
77469;BME280;68840;50.272;12.818;2023-04-01T03:18:05;94371;;;7.8;74.1
77469;BME280;68840;50.272;12.818;2023-04-01T03:20:08;94372;;;7.8;74.0
77469;BME280;68840;50.272;12.818;2023-04-01T03:22:05;94372;;;7.8;74.1
77469;BME280;68840;50.272;12.818;2023-04-01T03:24:06;94372;;;7.8;74.0
77469;BME280;68840;50.272;12.818;2023-04-01T03:26:05;94372;;;7.8;73.8
77469;BME280;68840;50.272;12.818;2023-04-01T03:28:05;94374;;;7.8;74.0
77469;BME280;68840;50.272;12.818;2023-04-01T03:30:06;94374;;;7.8;73.9
77469;BME280;68840;50.272;12.818;2023-04-01T03:32:05;94374;;;7.8;74.1
77469;BME280;68840;50.272;12.818;2023-04-01T03:34:05;94376;;;7.8;74.0
77469;BME280;68840;50.272;12.818;2023-04-01T03:36:06;94378;;;7.8;74.1
77469;BME280;68840;50.272;12.818;2023-04-01T03:38:05;94378;;;7.8;74.2
77469;BME280;68840;50.272;12.818;2023-04-01T03:40:06;94379;;;7.8;74.3
77469;BME280;68840;50.272;12.818;2023-04-01T03:42:06;94382;;;7.8;74.4
77469;BME280;68840;50.272;12.818;2023-04-01T03:44:06;94382;;;7.8;74.3
77469;BME280;68840;50.272;12.818;2023-04-01T03:46:05;94381;;;7.8;74.3
77469;BME280;68840;50.272;12.818;2023-04-01T03:48:05;94383;;;7.8;74.5
77469;BME280;68840;50.272;12.818;2023-04-01T03:50:06;94383;;;7.8;74.6
77469;BME280;68840;50.272;12.818;2023-04-01T03:52:08;94386;;;7.8;74.7
77469;BME280;68840;50.272;12.818;2023-04-01T03:54:06;94386;;;7.8;74.7
77469;BME280;68840;50.272;12.818;2023-04-01T03:56:07;94389;;;7.8;74.7
77469;BME280;68840;50.272;12.818;2023-04-01T03:58:06;94391;;;7.8;74.8
77469;BME280;68840;50.272;12.818;2023-04-01T04:00:08;94393;;;7.8;75.0
77469;BME280;68840;50.272;12.818;2023-04-01T04:02:05;94396;;;7.8;75.0
77469;BME280;68840;50.272;12.818;2023-04-01T04:04:05;94395;;;7.7;75.0
77469;BME280;68840;50.272;12.818;2023-04-01T04:06:05;94395;;;7.7;74.8
77469;BME280;68840;50.272;12.818;2023-04-01T04:08:05;94397;;;7.7;74.9
77469;BME280;68840;50.272;12.818;2023-04-01T04:10:06;94399;;;7.7;74.9
77469;BME280;68840;50.272;12.818;2023-04-01T04:12:06;94404;;;7.7;74.9
77469;BME280;68840;50.272;12.818;2023-04-01T04:14:05;94404;;;7.7;74.8
77469;BME280;68840;50.272;12.818;2023-04-01T04:16:06;94405;;;7.7;74.8
77469;BME280;68840;50.272;12.818;2023-04-01T04:18:05;94405;;;7.7;74.9
77469;BME280;68840;50.272;12.818;2023-04-01T04:20:06;94406;;;7.7;74.9
77469;BME280;68840;50.272;12.818;2023-04-01T04:22:05;94408;;;7.7;74.8
77469;BME280;68840;50.272;12.818;2023-04-01T04:24:05;94408;;;7.7;74.7
77469;BME280;68840;50.272;12.818;2023-04-01T04:26:07;94411;;;7.7;74.7
77469;BME280;68840;50.272;12.818;2023-04-01T04:28:05;94414;;;7.7;74.7
77469;BME280;68840;50.272;12.818;2023-04-01T04:30:07;94419;;;7.7;74.8
77469;BME280;68840;50.272;12.818;2023-04-01T04:32:05;94422;;;7.7;74.9
77469;BME280;68840;50.272;12.818;2023-04-01T04:34:05;94425;;;7.7;74.9
77469;BME280;68840;50.272;12.818;2023-04-01T04:36:05;94426;;;7.7;74.7
77469;BME280;68840;50.272;12.818;2023-04-01T04:38:05;94426;;;7.7;74.7
77469;BME280;68840;50.272;12.818;2023-04-01T04:40:07;94420;;;7.7;74.6
77469;BME280;68840;50.272;12.818;2023-04-01T04:42:05;94424;;;7.7;74.6
77469;BME280;68840;50.272;12.818;2023-04-01T04:44:05;94423;;;7.7;74.7
77469;BME280;68840;50.272;12.818;2023-04-01T04:46:07;94425;;;7.7;74.5
77469;BME280;68840;50.272;12.818;2023-04-01T04:48:07;94427;;;7.7;74.4
77469;BME280;68840;50.272;12.818;2023-04-01T04:50:06;94426;;;7.7;74.4
77469;BME280;68840;50.272;12.818;2023-04-01T04:52:06;94426;;;7.7;74.5
77469;BME280;68840;50.272;12.818;2023-04-01T04:54:06;94428;;;7.7;74.5
77469;BME280;68840;50.272;12.818;2023-04-01T04:56:05;94430;;;7.7;74.5
77469;BME280;68840;50.272;12.818;2023-04-01T04:58:05;94432;;;7.7;74.3
77469;BME280;68840;50.272;12.818;2023-04-01T05:00:06;94434;;;7.7;74.3
77469;BME280;68840;50.272;12.818;2023-04-01T05:02:06;94434;;;7.7;74.3
77469;BME280;68840;50.272;12.818;2023-04-01T05:04:05;94435;;;7.7;74.3
77469;BME280;68840;50.272;12.818;2023-04-01T05:06:07;94436;;;7.7;74.2
77469;BME280;68840;50.272;12.818;2023-04-01T05:08:06;94437;;;7.7;74.2
77469;BME280;68840;50.272;12.818;2023-04-01T05:10:06;94440;;;7.7;74.1
77469;BME280;68840;50.272;12.818;2023-04-01T05:12:05;94445;;;7.7;74.1
77469;BME280;68840;50.272;12.818;2023-04-01T05:14:05;94445;;;7.7;74.0
77469;BME280;68840;50.272;12.818;2023-04-01T05:16:07;94447;;;7.7;73.9
77469;BME280;68840;50.272;12.818;2023-04-01T05:18:05;94450;;;7.7;74.0
77469;BME280;68840;50.272;12.818;2023-04-01T05:20:07;94451;;;7.7;74.0
77469;BME280;68840;50.272;12.818;2023-04-01T05:22:05;94454;;;7.7;74.1
77469;BME280;68840;50.272;12.818;2023-04-01T05:24:07;94453;;;7.7;74.0
77469;BME280;68840;50.272;12.818;2023-04-01T05:26:07;94452;;;7.7;74.1
77469;BME280;68840;50.272;12.818;2023-04-01T05:28:05;94453;;;7.7;74.1
77469;BME280;68840;50.272;12.818;2023-04-01T05:30:06;94453;;;7.7;74.1
77469;BME280;68840;50.272;12.818;2023-04-01T05:32:05;94452;;;7.7;74.0
77469;BME280;68840;50.272;12.818;2023-04-01T05:34:05;94453;;;7.7;73.9
77469;BME280;68840;50.272;12.818;2023-04-01T05:36:07;94453;;;7.7;73.9
77469;BME280;68840;50.272;12.818;2023-04-01T05:38:06;94452;;;7.7;73.9
77469;BME280;68840;50.272;12.818;2023-04-01T05:40:06;94452;;;7.7;73.9
77469;BME280;68840;50.272;12.818;2023-04-01T05:42:06;94451;;;7.7;74.0
77469;BME280;68840;50.272;12.818;2023-04-01T05:44:05;94453;;;7.7;74.0
77469;BME280;68840;50.272;12.818;2023-04-01T05:46:05;94454;;;7.7;74.1
77469;BME280;68840;50.272;12.818;2023-04-01T05:48:05;94456;;;7.8;74.0
77469;BME280;68840;50.272;12.818;2023-04-01T05:50:05;94457;;;7.8;74.0
77469;BME280;68840;50.272;12.818;2023-04-01T05:52:05;94458;;;7.8;74.1
77469;BME280;68840;50.272;12.818;2023-04-01T05:54:06;94462;;;7.8;74.0
77469;BME280;68840;50.272;12.818;2023-04-01T05:56:06;94464;;;7.8;74.1
77469;BME280;68840;50.272;12.818;2023-04-01T05:58:05;94464;;;7.8;74.0
77469;BME280;68840;50.272;12.818;2023-04-01T06:00:06;94467;;;7.8;74.0
77469;BME280;68840;50.272;12.818;2023-04-01T06:02:05;94465;;;7.8;74.2
77469;BME280;68840;50.272;12.818;2023-04-01T06:04:06;94468;;;7.8;74.1
77469;BME280;68840;50.272;12.818;2023-04-01T06:06:13;94468;;;7.8;74.1
77469;BME280;68840;50.272;12.818;2023-04-01T06:08:10;94467;;;7.8;74.0
77469;BME280;68840;50.272;12.818;2023-04-01T06:10:12;94467;;;7.8;74.2
77469;BME280;68840;50.272;12.818;2023-04-01T06:12:19;94470;;;7.8;74.4
77469;BME280;68840;50.272;12.818;2023-04-01T06:14:11;94470;;;7.8;74.5
77469;BME280;68840;50.272;12.818;2023-04-01T06:16:12;94474;;;7.8;74.5
77469;BME280;68840;50.272;12.818;2023-04-01T06:18:24;94474;;;7.8;74.6
77469;BME280;68840;50.272;12.818;2023-04-01T06:20:11;94473;;;7.8;74.6
77469;BME280;68840;50.272;12.818;2023-04-01T06:22:20;94474;;;7.8;74.6
77469;BME280;68840;50.272;12.818;2023-04-01T06:24:17;94475;;;7.8;74.6
77469;BME280;68840;50.272;12.818;2023-04-01T06:26:13;94474;;;7.8;74.9
77469;BME280;68840;50.272;12.818;2023-04-01T06:28:23;94474;;;7.8;75.2
77469;BME280;68840;50.272;12.818;2023-04-01T06:30:23;94473;;;7.8;75.5
77469;BME280;68840;50.272;12.818;2023-04-01T06:32:19;94473;;;7.8;75.7
77469;BME280;68840;50.272;12.818;2023-04-01T06:34:16;94475;;;7.8;75.8
77469;BME280;68840;50.272;12.818;2023-04-01T06:36:21;94476;;;7.8;75.6
77469;BME280;68840;50.272;12.818;2023-04-01T06:38:21;94476;;;7.8;75.6
77469;BME280;68840;50.272;12.818;2023-04-01T06:40:19;94477;;;7.8;75.5
77469;BME280;68840;50.272;12.818;2023-04-01T06:42:15;94476;;;7.8;75.5
77469;BME280;68840;50.272;12.818;2023-04-01T06:44:14;94475;;;7.8;75.6
77469;BME280;68840;50.272;12.818;2023-04-01T06:46:11;94474;;;7.9;75.5
77469;BME280;68840;50.272;12.818;2023-04-01T06:48:16;94474;;;7.9;75.7
77469;BME280;68840;50.272;12.818;2023-04-01T06:50:14;94476;;;7.9;75.8
77469;BME280;68840;50.272;12.818;2023-04-01T06:52:12;94478;;;7.9;75.5
77469;BME280;68840;50.272;12.818;2023-04-01T06:54:10;94477;;;8.0;75.6
77469;BME280;68840;50.272;12.818;2023-04-01T06:56:09;94477;;;8.0;75.2
77469;BME280;68840;50.272;12.818;2023-04-01T06:58:10;94477;;;8.0;75.1
77469;BME280;68840;50.272;12.818;2023-04-01T07:00:13;94479;;;8.0;75.1
77469;BME280;68840;50.272;12.818;2023-04-01T07:02:18;94479;;;8.0;75.4
77469;BME280;68840;50.272;12.818;2023-04-01T07:04:11;94476;;;8.0;75.0
77469;BME280;68840;50.272;12.818;2023-04-01T07:06:10;94478;;;8.0;75.0
77469;BME280;68840;50.272;12.818;2023-04-01T07:08:10;94479;;;8.1;74.8
77469;BME280;68840;50.272;12.818;2023-04-01T07:10:13;94477;;;8.1;74.9
77469;BME280;68840;50.272;12.818;2023-04-01T07:12:13;94478;;;8.1;75.0
77469;BME280;68840;50.272;12.818;2023-04-01T07:14:12;94476;;;8.2;74.9
77469;BME280;68840;50.272;12.818;2023-04-01T07:16:12;94475;;;8.2;74.8
77469;BME280;68840;50.272;12.818;2023-04-01T07:18:11;94472;;;8.3;75.0
77469;BME280;68840;50.272;12.818;2023-04-01T07:20:15;94471;;;8.4;74.6
77469;BME280;68840;50.272;12.818;2023-04-01T07:22:10;94471;;;8.5;74.4
77469;BME280;68840;50.272;12.818;2023-04-01T07:24:10;94471;;;8.5;74.2
77469;BME280;68840;50.272;12.818;2023-04-01T07:26:15;94473;;;8.6;73.3
77469;BME280;68840;50.272;12.818;2023-04-01T07:28:11;94476;;;8.7;73.4
77469;BME280;68840;50.272;12.818;2023-04-01T07:30:14;94474;;;8.7;73.5
77469;BME280;68840;50.272;12.818;2023-04-01T07:32:20;94472;;;8.8;73.2
77469;BME280;68840;50.272;12.818;2023-04-01T07:34:11;94472;;;8.9;72.6
77469;BME280;68840;50.272;12.818;2023-04-01T07:36:08;94472;;;8.9;72.3
77469;BME280;68840;50.272;12.818;2023-04-01T07:38:14;94473;;;9.0;72.8
77469;BME280;68840;50.272;12.818;2023-04-01T07:40:18;94476;;;9.1;72.6
77469;BME280;68840;50.272;12.818;2023-04-01T07:42:11;94473;;;9.2;72.8
77469;BME280;68840;50.272;12.818;2023-04-01T07:44:13;94473;;;9.3;71.7
77469;BME280;68840;50.272;12.818;2023-04-01T07:46:12;94470;;;9.4;71.6
77469;BME280;68840;50.272;12.818;2023-04-01T07:48:15;94470;;;9.5;71.0
77469;BME280;68840;50.272;12.818;2023-04-01T07:50:13;94469;;;9.6;70.9
77469;BME280;68840;50.272;12.818;2023-04-01T07:52:11;94474;;;9.6;70.2
77469;BME280;68840;50.272;12.818;2023-04-01T07:54:10;94473;;;9.6;69.6
77469;BME280;68840;50.272;12.818;2023-04-01T07:56:09;94474;;;9.5;69.8
77469;BME280;68840;50.272;12.818;2023-04-01T07:58:12;94475;;;9.5;69.4
77469;BME280;68840;50.272;12.818;2023-04-01T08:00:12;94477;;;9.4;69.5
77469;BME280;68840;50.272;12.818;2023-04-01T08:02:15;94482;;;9.3;69.4
77469;BME280;68840;50.272;12.818;2023-04-01T08:04:19;94485;;;9.3;69.5
77469;BME280;68840;50.272;12.818;2023-04-01T08:06:10;94488;;;9.2;69.7
77469;BME280;68840;50.272;12.818;2023-04-01T08:08:11;94493;;;9.2;70.0
77469;BME280;68840;50.272;12.818;2023-04-01T08:10:13;94496;;;9.2;69.8
77469;BME280;68840;50.272;12.818;2023-04-01T08:12:15;94496;;;9.2;70.3
77469;BME280;68840;50.272;12.818;2023-04-01T08:14:12;94498;;;9.2;70.1
77469;BME280;68840;50.272;12.818;2023-04-01T08:16:13;94498;;;9.2;70.7
77469;BME280;68840;50.272;12.818;2023-04-01T08:18:14;94501;;;9.1;70.5
77469;BME280;68840;50.272;12.818;2023-04-01T08:20:18;94499;;;9.2;70.6
77469;BME280;68840;50.272;12.818;2023-04-01T08:22:11;94501;;;9.2;70.4
77469;BME280;68840;50.272;12.818;2023-04-01T08:24:11;94499;;;9.3;70.5
77469;BME280;68840;50.272;12.818;2023-04-01T08:26:10;94497;;;9.3;70.7
77469;BME280;68840;50.272;12.818;2023-04-01T08:28:13;94496;;;9.4;70.7
77469;BME280;68840;50.272;12.818;2023-04-01T08:30:17;94498;;;9.4;70.2
77469;BME280;68840;50.272;12.818;2023-04-01T08:32:09;94497;;;9.5;70.7
77469;BME280;68840;50.272;12.818;2023-04-01T08:34:10;94495;;;9.5;70.9
77469;BME280;68840;50.272;12.818;2023-04-01T08:36:10;94494;;;9.6;70.0
77469;BME280;68840;50.272;12.818;2023-04-01T08:38:11;94493;;;9.6;69.7
77469;BME280;68840;50.272;12.818;2023-04-01T08:40:25;94496;;;9.6;69.3
77469;BME280;68840;50.272;12.818;2023-04-01T08:42:21;94495;;;9.6;69.5
77469;BME280;68840;50.272;12.818;2023-04-01T08:44:22;94493;;;9.6;69.5
77469;BME280;68840;50.272;12.818;2023-04-01T08:46:19;94496;;;9.6;70.0
77469;BME280;68840;50.272;12.818;2023-04-01T08:48:19;94499;;;9.6;70.1
77469;BME280;68840;50.272;12.818;2023-04-01T08:50:20;94498;;;9.7;70.0
77469;BME280;68840;50.272;12.818;2023-04-01T08:52:14;94500;;;9.7;70.3
77469;BME280;68840;50.272;12.818;2023-04-01T08:54:21;94501;;;9.7;69.7
77469;BME280;68840;50.272;12.818;2023-04-01T08:56:13;94501;;;9.7;69.0
77469;BME280;68840;50.272;12.818;2023-04-01T08:58:20;94502;;;9.7;68.8
77469;BME280;68840;50.272;12.818;2023-04-01T09:00:19;94500;;;9.7;68.9
77469;BME280;68840;50.272;12.818;2023-04-01T09:02:21;94503;;;9.7;69.1
77469;BME280;68840;50.272;12.818;2023-04-01T09:04:20;94503;;;9.7;69.1
77469;BME280;68840;50.272;12.818;2023-04-01T09:06:24;94504;;;9.7;68.4
77469;BME280;68840;50.272;12.818;2023-04-01T09:08:15;94505;;;9.6;68.6
77469;BME280;68840;50.272;12.818;2023-04-01T09:10:18;94506;;;9.6;68.8
77469;BME280;68840;50.272;12.818;2023-04-01T09:12:19;94507;;;9.6;68.8
77469;BME280;68840;50.272;12.818;2023-04-01T09:14:15;94506;;;9.6;68.7
77469;BME280;68840;50.272;12.818;2023-04-01T09:16:13;94507;;;9.6;68.5
77469;BME280;68840;50.272;12.818;2023-04-01T09:18:13;94509;;;9.6;68.8
77469;BME280;68840;50.272;12.818;2023-04-01T09:20:37;94512;;;9.6;68.6
77469;BME280;68840;50.272;12.818;2023-04-01T09:22:22;94511;;;9.6;69.1
77469;BME280;68840;50.272;12.818;2023-04-01T09:24:35;94513;;;9.6;68.8
77469;BME280;68840;50.272;12.818;2023-04-01T09:26:13;94514;;;9.6;68.8
77469;BME280;68840;50.272;12.818;2023-04-01T09:28:11;94517;;;9.6;68.7
77469;BME280;68840;50.272;12.818;2023-04-01T09:30:21;94516;;;9.6;68.8
77469;BME280;68840;50.272;12.818;2023-04-01T09:32:18;94516;;;9.6;68.6
77469;BME280;68840;50.272;12.818;2023-04-01T09:34:21;94515;;;9.6;68.5
77469;BME280;68840;50.272;12.818;2023-04-01T09:36:12;94514;;;9.6;69.2
77469;BME280;68840;50.272;12.818;2023-04-01T09:38:20;94514;;;9.6;68.8
77469;BME280;68840;50.272;12.818;2023-04-01T09:40:17;94517;;;9.6;68.4
77469;BME280;68840;50.272;12.818;2023-04-01T09:42:15;94513;;;9.6;68.5
77469;BME280;68840;50.272;12.818;2023-04-01T09:44:14;94512;;;9.7;68.8
77469;BME280;68840;50.272;12.818;2023-04-01T09:46:12;94512;;;9.7;68.5
77469;BME280;68840;50.272;12.818;2023-04-01T09:48:19;94513;;;9.7;68.6
77469;BME280;68840;50.272;12.818;2023-04-01T09:50:20;94515;;;9.7;67.7
77469;BME280;68840;50.272;12.818;2023-04-01T09:52:17;94514;;;9.7;68.4
77469;BME280;68840;50.272;12.818;2023-04-01T09:54:17;94515;;;9.7;68.3
77469;BME280;68840;50.272;12.818;2023-04-01T09:56:22;94515;;;9.8;68.1
77469;BME280;68840;50.272;12.818;2023-04-01T10:00:20;94520;;;9.9;68.6
77469;BME280;68840;50.272;12.818;2023-04-01T10:04:21;94525;;;9.9;68.2
77469;BME280;68840;50.272;12.818;2023-04-01T10:06:41;94526;;;9.9;68.1
77469;BME280;68840;50.272;12.818;2023-04-01T10:08:21;94526;;;9.9;68.4
77469;BME280;68840;50.272;12.818;2023-04-01T10:10:23;94529;;;9.9;68.2
77469;BME280;68840;50.272;12.818;2023-04-01T10:12:23;94531;;;9.9;68.7
77469;BME280;68840;50.272;12.818;2023-04-01T10:14:22;94531;;;9.9;68.3
77469;BME280;68840;50.272;12.818;2023-04-01T10:18:15;94528;;;9.9;68.3
77469;BME280;68840;50.272;12.818;2023-04-01T10:20:14;94527;;;9.9;67.6
77469;BME280;68840;50.272;12.818;2023-04-01T10:22:27;94526;;;9.9;67.7
77469;BME280;68840;50.272;12.818;2023-04-01T10:24:25;94527;;;9.9;67.8
77469;BME280;68840;50.272;12.818;2023-04-01T10:26:20;94527;;;9.9;67.6
77469;BME280;68840;50.272;12.818;2023-04-01T10:28:15;94530;;;10.0;67.6
77469;BME280;68840;50.272;12.818;2023-04-01T10:32:36;94523;;;10.1;66.8
77469;BME280;68840;50.272;12.818;2023-04-01T10:34:36;94525;;;10.1;67.0
77469;BME280;68840;50.272;12.818;2023-04-01T10:36:21;94524;;;10.1;67.1
77469;BME280;68840;50.272;12.818;2023-04-01T10:38:28;94523;;;10.1;67.1
77469;BME280;68840;50.272;12.818;2023-04-01T10:40:20;94524;;;10.2;67.2
77469;BME280;68840;50.272;12.818;2023-04-01T10:44:25;94522;;;10.3;67.3
77469;BME280;68840;50.272;12.818;2023-04-01T10:46:21;94524;;;10.4;66.7
77469;BME280;68840;50.272;12.818;2023-04-01T10:48:12;94525;;;10.4;67.5
77469;BME280;68840;50.272;12.818;2023-04-01T10:50:20;94523;;;10.4;67.9
77469;BME280;68840;50.272;12.818;2023-04-01T10:54:18;94524;;;10.5;68.5
77469;BME280;68840;50.272;12.818;2023-04-01T10:58:21;94526;;;10.6;69.1
77469;BME280;68840;50.272;12.818;2023-04-01T11:00:23;94524;;;10.6;68.8
77469;BME280;68840;50.272;12.818;2023-04-01T11:02:23;94523;;;10.6;68.5
77469;BME280;68840;50.272;12.818;2023-04-01T11:10:21;94529;;;10.6;67.7
77469;BME280;68840;50.272;12.818;2023-04-01T11:12:35;94529;;;10.6;68.4
77469;BME280;68840;50.272;12.818;2023-04-01T11:14:21;94531;;;10.6;68.7
77469;BME280;68840;50.272;12.818;2023-04-01T11:16:35;94532;;;10.6;68.9
77469;BME280;68840;50.272;12.818;2023-04-01T11:18:23;94532;;;10.7;68.3
77469;BME280;68840;50.272;12.818;2023-04-01T11:20:20;94534;;;10.8;67.7
77469;BME280;68840;50.272;12.818;2023-04-01T11:22:14;94534;;;10.9;68.0
77469;BME280;68840;50.272;12.818;2023-04-01T11:24:18;94532;;;10.9;68.9
77469;BME280;68840;50.272;12.818;2023-04-01T11:26:08;94533;;;11.0;69.9
77469;BME280;68840;50.272;12.818;2023-04-01T11:28:20;94530;;;11.1;69.9
77469;BME280;68840;50.272;12.818;2023-04-01T11:30:12;94532;;;11.1;69.5
77469;BME280;68840;50.272;12.818;2023-04-01T11:32:12;94530;;;11.2;67.7
77469;BME280;68840;50.272;12.818;2023-04-01T11:34:14;94530;;;11.1;67.7
77469;BME280;68840;50.272;12.818;2023-04-01T11:36:12;94531;;;11.1;69.1
77469;BME280;68840;50.272;12.818;2023-04-01T11:38:26;94532;;;11.0;70.2